sensor_id;sensor_type;location;lat;lon;timestamp;pressure;altitude;pressure_sealevel;temperature;humidity
22018;BME280;11173;51.050;7.108;2022-09-09T00:09:17;98830.22;;;16.21;57.48
22018;BME280;11173;51.050;7.108;2022-09-09T00:14:36;98831.00;;;16.22;57.19
22018;BME280;11173;51.050;7.108;2022-09-09T00:20:00;98811.38;;;16.13;57.41
22018;BME280;11173;51.050;7.108;2022-09-09T00:25:15;98810.16;;;16.14;57.06
22018;BME280;11173;51.050;7.108;2022-09-09T00:30:26;98816.53;;;16.14;57.29
22018;BME280;11173;51.050;7.108;2022-09-09T00:35:38;98817.47;;;16.11;57.61
22018;BME280;11173;51.050;7.108;2022-09-09T00:40:50;98813.13;;;16.10;57.99
22018;BME280;11173;51.050;7.108;2022-09-09T00:46:05;98807.22;;;16.08;57.88
22018;BME280;11173;51.050;7.108;2022-09-09T00:51:22;98819.81;;;16.13;58.10
22018;BME280;11173;51.050;7.108;2022-09-09T00:56:32;98811.69;;;16.15;58.38
22018;BME280;11173;51.050;7.108;2022-09-09T01:01:37;98816.94;;;16.22;58.01
22018;BME280;11173;51.050;7.108;2022-09-09T01:06:39;98810.34;;;16.25;57.89
22018;BME280;11173;51.050;7.108;2022-09-09T01:16:57;98815.63;;;16.32;57.72
22018;BME280;11173;51.050;7.108;2022-09-09T01:27:25;98814.56;;;16.29;57.77
22018;BME280;11173;51.050;7.108;2022-09-09T01:32:41;98815.03;;;16.28;57.77
22018;BME280;11173;51.050;7.108;2022-09-09T01:37:42;98805.72;;;16.22;57.81
22018;BME280;11173;51.050;7.108;2022-09-09T01:42:43;98820.91;;;16.15;57.81
22018;BME280;11173;51.050;7.108;2022-09-09T01:47:44;98814.88;;;16.07;57.65
22018;BME280;11173;51.050;7.108;2022-09-09T01:52:48;98817.44;;;15.96;58.04
22018;BME280;11173;51.050;7.108;2022-09-09T02:08:22;98818.47;;;15.75;58.23
22018;BME280;11173;51.050;7.108;2022-09-09T02:13:25;98818.00;;;15.76;58.73
22018;BME280;11173;51.050;7.108;2022-09-09T02:18:51;98821.88;;;15.88;58.66
22018;BME280;11173;51.050;7.108;2022-09-09T02:23:55;98824.31;;;15.95;58.65
22018;BME280;11173;51.050;7.108;2022-09-09T02:28:59;98810.38;;;16.01;58.77
22018;BME280;11173;51.050;7.108;2022-09-09T02:34:03;98812.38;;;16.09;58.93
22018;BME280;11173;51.050;7.108;2022-09-09T02:39:08;98809.75;;;16.21;58.84
22018;BME280;11173;51.050;7.108;2022-09-09T02:44:15;98813.47;;;16.27;58.85
22018;BME280;11173;51.050;7.108;2022-09-09T02:54:29;98814.16;;;16.37;58.50
22018;BME280;11173;51.050;7.108;2022-09-09T02:59:31;98809.34;;;16.37;58.62
22018;BME280;11173;51.050;7.108;2022-09-09T03:04:31;98802.28;;;16.42;58.44
22018;BME280;11173;51.050;7.108;2022-09-09T03:09:32;98807.72;;;16.45;58.84
22018;BME280;11173;51.050;7.108;2022-09-09T03:14:32;98797.81;;;16.50;58.58
22018;BME280;11173;51.050;7.108;2022-09-09T03:19:33;98801.28;;;16.45;58.34
22018;BME280;11173;51.050;7.108;2022-09-09T03:24:35;98790.91;;;16.36;58.39
22018;BME280;11173;51.050;7.108;2022-09-09T03:29:35;98793.91;;;16.33;58.59
22018;BME280;11173;51.050;7.108;2022-09-09T03:34:36;98795.84;;;16.26;58.57
22018;BME280;11173;51.050;7.108;2022-09-09T03:39:39;98788.75;;;16.16;58.59
22018;BME280;11173;51.050;7.108;2022-09-09T03:44:40;98804.22;;;16.12;59.04
22018;BME280;11173;51.050;7.108;2022-09-09T03:49:42;98795.50;;;16.09;58.95
22018;BME280;11173;51.050;7.108;2022-09-09T03:54:42;98799.84;;;16.10;58.92
22018;BME280;11173;51.050;7.108;2022-09-09T03:59:43;98791.13;;;16.08;59.28
22018;BME280;11173;51.050;7.108;2022-09-09T04:04:43;98799.38;;;16.12;59.02
22018;BME280;11173;51.050;7.108;2022-09-09T04:09:44;98804.06;;;16.15;59.03
22018;BME280;11173;51.050;7.108;2022-09-09T04:14:44;98795.13;;;16.17;59.07
22018;BME280;11173;51.050;7.108;2022-09-09T04:19:44;98791.06;;;16.18;59.14
22018;BME280;11173;51.050;7.108;2022-09-09T04:24:45;98795.13;;;16.17;59.09
22018;BME280;11173;51.050;7.108;2022-09-09T04:29:45;98788.25;;;16.18;59.12
22018;BME280;11173;51.050;7.108;2022-09-09T04:34:46;98794.00;;;16.23;59.34
22018;BME280;11173;51.050;7.108;2022-09-09T04:39:47;98795.06;;;16.26;58.97
22018;BME280;11173;51.050;7.108;2022-09-09T04:44:48;98790.91;;;16.21;58.40
22018;BME280;11173;51.050;7.108;2022-09-09T04:49:48;98802.97;;;16.13;58.44
22018;BME280;11173;51.050;7.108;2022-09-09T04:54:49;98813.78;;;16.05;58.47
22018;BME280;11173;51.050;7.108;2022-09-09T04:59:50;98811.06;;;15.96;58.63
22018;BME280;11173;51.050;7.108;2022-09-09T05:04:50;98800.63;;;15.87;58.73
22018;BME280;11173;51.050;7.108;2022-09-09T05:09:51;98803.81;;;15.80;58.58
22018;BME280;11173;51.050;7.108;2022-09-09T05:14:52;98758.75;;;15.41;58.56
22018;BME280;11173;51.050;7.108;2022-09-09T05:19:52;98753.81;;;15.36;58.73
22018;BME280;11173;51.050;7.108;2022-09-09T05:24:53;98754.94;;;15.29;59.27
22018;BME280;11173;51.050;7.108;2022-09-09T05:29:54;98763.19;;;15.33;59.04
22018;BME280;11173;51.050;7.108;2022-09-09T05:34:54;98763.19;;;15.33;59.29
22018;BME280;11173;51.050;7.108;2022-09-09T05:39:55;98778.78;;;15.34;59.92
22018;BME280;11173;51.050;7.108;2022-09-09T05:44:56;98808.13;;;15.57;59.74
22018;BME280;11173;51.050;7.108;2022-09-09T05:49:57;98784.38;;;15.34;59.72
22018;BME280;11173;51.050;7.108;2022-09-09T05:54:57;98784.38;;;15.34;59.68
22018;BME280;11173;51.050;7.108;2022-09-09T05:59:59;98766.34;;;15.25;59.71
22018;BME280;11173;51.050;7.108;2022-09-09T06:05:00;98790.63;;;15.28;59.59
22018;BME280;11173;51.050;7.108;2022-09-09T06:10:01;98794.50;;;15.31;60.36
22018;BME280;11173;51.050;7.108;2022-09-09T06:15:01;98754.72;;;15.08;60.17
22018;BME280;11173;51.050;7.108;2022-09-09T06:20:02;98776.78;;;15.25;60.82
22018;BME280;11173;51.050;7.108;2022-09-09T06:25:03;98794.19;;;15.38;60.75
22018;BME280;11173;51.050;7.108;2022-09-09T06:30:04;98791.97;;;15.42;60.76
22018;BME280;11173;51.050;7.108;2022-09-09T06:35:05;98778.72;;;15.43;60.37
22018;BME280;11173;51.050;7.108;2022-09-09T06:40:06;98782.72;;;15.51;60.33
22018;BME280;11173;51.050;7.108;2022-09-09T06:45:07;98790.69;;;15.52;60.58
22018;BME280;11173;51.050;7.108;2022-09-09T06:50:08;98780.59;;;15.46;60.87
22018;BME280;11173;51.050;7.108;2022-09-09T06:55:08;98793.28;;;15.65;60.52
22018;BME280;11173;51.050;7.108;2022-09-09T07:00:09;98767.63;;;15.48;60.92
22018;BME280;11173;51.050;7.108;2022-09-09T07:05:11;98786.19;;;15.79;61.74
22018;BME280;11173;51.050;7.108;2022-09-09T07:10:14;98775.44;;;16.02;61.84
22018;BME280;11173;51.050;7.108;2022-09-09T07:15:15;98764.91;;;16.26;60.88
22018;BME280;11173;51.050;7.108;2022-09-09T07:20:15;98779.38;;;16.49;60.63
22018;BME280;11173;51.050;7.108;2022-09-09T07:25:15;98801.06;;;16.73;60.30
22018;BME280;11173;51.050;7.108;2022-09-09T07:30:18;98823.19;;;17.09;60.90
22018;BME280;11173;51.050;7.108;2022-09-09T07:35:19;98824.81;;;17.46;60.73
22018;BME280;11173;51.050;7.108;2022-09-09T07:40:20;98833.97;;;17.76;60.15
22018;BME280;11173;51.050;7.108;2022-09-09T07:45:21;98831.19;;;17.97;59.50
22018;BME280;11173;51.050;7.108;2022-09-09T07:50:23;98841.41;;;18.15;59.49
22018;BME280;11173;51.050;7.108;2022-09-09T07:55:23;98844.44;;;18.32;59.26
22018;BME280;11173;51.050;7.108;2022-09-09T08:00:27;98849.31;;;18.52;59.20
22018;BME280;11173;51.050;7.108;2022-09-09T08:05:28;98853.16;;;18.75;58.74
22018;BME280;11173;51.050;7.108;2022-09-09T08:10:29;98852.31;;;18.89;58.46
22018;BME280;11173;51.050;7.108;2022-09-09T08:15:29;98852.13;;;18.98;58.05
22018;BME280;11173;51.050;7.108;2022-09-09T08:20:31;98852.50;;;19.12;57.18
22018;BME280;11173;51.050;7.108;2022-09-09T08:25:31;98839.16;;;19.12;57.12
22018;BME280;11173;51.050;7.108;2022-09-09T08:30:32;98840.22;;;19.15;57.42
22018;BME280;11173;51.050;7.108;2022-09-09T08:35:32;98850.78;;;19.20;57.59
22018;BME280;11173;51.050;7.108;2022-09-09T08:40:35;98841.38;;;19.28;57.41
22018;BME280;11173;51.050;7.108;2022-09-09T08:45:57;98847.44;;;19.47;57.72
22018;BME280;11173;51.050;7.108;2022-09-09T08:51:00;98848.56;;;19.61;57.09
22018;BME280;11173;51.050;7.108;2022-09-09T08:56:09;98852.31;;;19.84;56.78
22018;BME280;11173;51.050;7.108;2022-09-09T09:11:48;98866.03;;;20.52;54.94
22018;BME280;11173;51.050;7.108;2022-09-09T09:17:03;98868.13;;;20.62;54.18
22018;BME280;11173;51.050;7.108;2022-09-09T09:22:14;98864.25;;;20.60;53.90
22018;BME280;11173;51.050;7.108;2022-09-09T09:27:32;98860.09;;;20.50;54.54
22018;BME280;11173;51.050;7.108;2022-09-09T09:32:34;98862.94;;;20.50;54.64
22018;BME280;11173;51.050;7.108;2022-09-09T09:37:35;98862.75;;;20.70;55.25
22018;BME280;11173;51.050;7.108;2022-09-09T09:42:36;98868.50;;;20.93;53.62
22018;BME280;11173;51.050;7.108;2022-09-09T09:47:37;98863.88;;;21.01;53.09
22018;BME280;11173;51.050;7.108;2022-09-09T09:52:41;98852.81;;;20.97;52.36
22018;BME280;11173;51.050;7.108;2022-09-09T09:57:42;98869.72;;;20.75;52.62
22018;BME280;11173;51.050;7.108;2022-09-09T10:02:46;98869.13;;;20.54;53.13
22018;BME280;11173;51.050;7.108;2022-09-09T10:08:09;98875.28;;;20.52;52.80
22018;BME280;11173;51.050;7.108;2022-09-09T10:13:37;98859.09;;;20.53;54.04
22018;BME280;11173;51.050;7.108;2022-09-09T10:18:50;98867.66;;;20.75;53.95
22018;BME280;11173;51.050;7.108;2022-09-09T10:34:39;98863.13;;;21.29;52.38
22018;BME280;11173;51.050;7.108;2022-09-09T10:39:42;98866.75;;;21.35;51.90
22018;BME280;11173;51.050;7.108;2022-09-09T10:50:12;98864.41;;;21.16;52.00
22018;BME280;11173;51.050;7.108;2022-09-09T10:55:18;98857.72;;;21.02;52.34
22018;BME280;11173;51.050;7.108;2022-09-09T11:05:27;98841.66;;;20.71;52.36
22018;BME280;11173;51.050;7.108;2022-09-09T11:10:49;98845.56;;;20.79;52.84
22018;BME280;11173;51.050;7.108;2022-09-09T11:16:01;98838.91;;;20.99;52.73
22018;BME280;11173;51.050;7.108;2022-09-09T11:21:12;98839.69;;;21.11;52.54
22018;BME280;11173;51.050;7.108;2022-09-09T11:26:32;98835.31;;;21.27;51.46
22018;BME280;11173;51.050;7.108;2022-09-09T11:37:24;98830.19;;;21.54;51.76
22018;BME280;11173;51.050;7.108;2022-09-09T11:42:30;98847.44;;;21.61;50.02
22018;BME280;11173;51.050;7.108;2022-09-09T11:47:30;98841.50;;;21.59;50.69
22018;BME280;11173;51.050;7.108;2022-09-09T11:52:40;98835.34;;;21.55;50.11
22018;BME280;11173;51.050;7.108;2022-09-09T11:57:42;98832.22;;;21.48;49.99
22018;BME280;11173;51.050;7.108;2022-09-09T12:02:48;98835.31;;;21.44;50.09
22018;BME280;11173;51.050;7.108;2022-09-09T12:07:54;98838.13;;;21.44;50.15
22018;BME280;11173;51.050;7.108;2022-09-09T12:13:28;98831.44;;;21.47;50.64
22018;BME280;11173;51.050;7.108;2022-09-09T12:18:36;98835.56;;;21.46;49.59
22018;BME280;11173;51.050;7.108;2022-09-09T12:28:52;98828.88;;;21.15;49.06
22018;BME280;11173;51.050;7.108;2022-09-09T12:33:55;98829.63;;;20.93;49.18
22018;BME280;11173;51.050;7.108;2022-09-09T12:39:15;98824.44;;;20.75;49.23
22018;BME280;11173;51.050;7.108;2022-09-09T12:44:17;98818.97;;;20.54;49.49
22018;BME280;11173;51.050;7.108;2022-09-09T12:49:26;98823.59;;;20.52;49.81
22018;BME280;11173;51.050;7.108;2022-09-09T12:54:28;98814.34;;;20.62;49.74
22018;BME280;11173;51.050;7.108;2022-09-09T12:59:37;98807.47;;;20.75;50.19
22018;BME280;11173;51.050;7.108;2022-09-09T13:04:39;98813.66;;;20.79;49.07
22018;BME280;11173;51.050;7.108;2022-09-09T13:09:39;98816.94;;;20.66;48.85
22018;BME280;11173;51.050;7.108;2022-09-09T13:14:43;98818.72;;;20.46;48.36
22018;BME280;11173;51.050;7.108;2022-09-09T13:19:47;98812.94;;;20.24;47.93
22018;BME280;11173;51.050;7.108;2022-09-09T13:24:58;98810.50;;;20.00;48.48
22018;BME280;11173;51.050;7.108;2022-09-09T13:30:00;98792.94;;;19.79;49.76
22018;BME280;11173;51.050;7.108;2022-09-09T13:35:01;98801.19;;;19.88;49.73
22018;BME280;11173;51.050;7.108;2022-09-09T13:40:02;98797.59;;;19.87;49.69
22018;BME280;11173;51.050;7.108;2022-09-09T13:45:05;98801.16;;;19.77;49.43
22018;BME280;11173;51.050;7.108;2022-09-09T13:50:23;98796.69;;;19.59;49.50
22018;BME280;11173;51.050;7.108;2022-09-09T13:55:26;98798.84;;;19.38;49.68
22018;BME280;11173;51.050;7.108;2022-09-09T14:00:30;98795.88;;;19.21;49.97
22018;BME280;11173;51.050;7.108;2022-09-09T14:05:32;98781.84;;;19.00;50.65
22018;BME280;11173;51.050;7.108;2022-09-09T14:10:34;98780.53;;;18.96;51.92
22018;BME280;11173;51.050;7.108;2022-09-09T14:15:37;98769.94;;;19.17;52.71
22018;BME280;11173;51.050;7.108;2022-09-09T14:20:38;98768.41;;;19.53;52.12
22018;BME280;11173;51.050;7.108;2022-09-09T14:25:43;98766.75;;;19.84;51.61
22018;BME280;11173;51.050;7.108;2022-09-09T14:30:43;98772.47;;;19.95;50.41
22018;BME280;11173;51.050;7.108;2022-09-09T14:35:44;98780.13;;;19.83;50.78
22018;BME280;11173;51.050;7.108;2022-09-09T14:40:45;98812.91;;;19.70;50.63
22018;BME280;11173;51.050;7.108;2022-09-09T14:45:46;98808.88;;;19.44;50.48
22018;BME280;11173;51.050;7.108;2022-09-09T14:50:48;98809.41;;;18.85;51.28
22018;BME280;11173;51.050;7.108;2022-09-09T14:55:49;98820.78;;;18.23;52.47
22018;BME280;11173;51.050;7.108;2022-09-09T15:00:49;98824.19;;;17.72;53.11
22018;BME280;11173;51.050;7.108;2022-09-09T15:05:50;98823.19;;;17.24;54.37
22018;BME280;11173;51.050;7.108;2022-09-09T15:10:59;98826.00;;;16.95;54.97
22018;BME280;11173;51.050;7.108;2022-09-09T15:16:08;98830.56;;;16.92;56.54
22018;BME280;11173;51.050;7.108;2022-09-09T15:21:10;98831.94;;;17.12;57.64
22018;BME280;11173;51.050;7.108;2022-09-09T15:26:11;98826.13;;;17.50;57.60
22018;BME280;11173;51.050;7.108;2022-09-09T15:36:21;98826.75;;;18.31;56.58
22018;BME280;11173;51.050;7.108;2022-09-09T15:41:22;98813.50;;;18.58;56.46
22018;BME280;11173;51.050;7.108;2022-09-09T15:46:31;98808.88;;;18.81;55.63
22018;BME280;11173;51.050;7.108;2022-09-09T15:51:32;98804.38;;;18.95;55.79
22018;BME280;11173;51.050;7.108;2022-09-09T15:56:32;98819.88;;;19.05;54.97
22018;BME280;11173;51.050;7.108;2022-09-09T16:01:33;98817.81;;;19.05;55.07
22018;BME280;11173;51.050;7.108;2022-09-09T16:06:34;98827.00;;;19.00;55.38
22018;BME280;11173;51.050;7.108;2022-09-09T16:11:37;98849.00;;;18.96;55.23
22018;BME280;11173;51.050;7.108;2022-09-09T16:16:38;98844.06;;;18.85;55.29
22018;BME280;11173;51.050;7.108;2022-09-09T16:21:43;98852.66;;;18.76;55.30
22018;BME280;11173;51.050;7.108;2022-09-09T16:26:46;98852.00;;;18.61;54.79
22018;BME280;11173;51.050;7.108;2022-09-09T16:31:48;98852.56;;;18.44;55.28
22018;BME280;11173;51.050;7.108;2022-09-09T16:36:49;98848.97;;;18.23;55.27
22018;BME280;11173;51.050;7.108;2022-09-09T16:41:49;98852.91;;;18.11;55.20
22018;BME280;11173;51.050;7.108;2022-09-09T16:46:50;98859.31;;;17.91;55.39
22018;BME280;11173;51.050;7.108;2022-09-09T16:51:52;98864.47;;;17.78;55.50
22018;BME280;11173;51.050;7.108;2022-09-09T16:56:55;98851.69;;;17.62;55.96
22018;BME280;11173;51.050;7.108;2022-09-09T17:01:55;98854.09;;;17.54;55.50
22018;BME280;11173;51.050;7.108;2022-09-09T17:06:56;98851.22;;;17.34;55.77
22018;BME280;11173;51.050;7.108;2022-09-09T17:11:57;98866.97;;;17.25;55.79
22018;BME280;11173;51.050;7.108;2022-09-09T17:16:58;98863.38;;;17.10;55.96
22018;BME280;11173;51.050;7.108;2022-09-09T17:22:00;98868.50;;;16.97;55.83
22018;BME280;11173;51.050;7.108;2022-09-09T17:27:01;98869.72;;;16.81;56.01
22018;BME280;11173;51.050;7.108;2022-09-09T17:32:02;98884.09;;;16.59;55.96
22018;BME280;11173;51.050;7.108;2022-09-09T17:37:03;98888.94;;;16.43;56.01
22018;BME280;11173;51.050;7.108;2022-09-09T17:42:06;98887.81;;;16.26;56.59
22018;BME280;11173;51.050;7.108;2022-09-09T17:47:07;98879.50;;;16.07;56.72
22018;BME280;11173;51.050;7.108;2022-09-09T17:52:08;98886.44;;;15.97;56.73
22018;BME280;11173;51.050;7.108;2022-09-09T17:57:08;98894.13;;;15.87;57.06
22018;BME280;11173;51.050;7.108;2022-09-09T18:02:11;98903.81;;;15.77;57.35
22018;BME280;11173;51.050;7.108;2022-09-09T18:07:12;98901.66;;;15.63;57.52
22018;BME280;11173;51.050;7.108;2022-09-09T18:12:13;98900.00;;;15.47;58.01
22018;BME280;11173;51.050;7.108;2022-09-09T18:17:13;98912.19;;;15.44;58.02
22018;BME280;11173;51.050;7.108;2022-09-09T18:22:14;98917.34;;;15.45;58.12
22018;BME280;11173;51.050;7.108;2022-09-09T18:27:14;98921.84;;;15.43;58.56
22018;BME280;11173;51.050;7.108;2022-09-09T18:32:15;98917.19;;;15.40;58.72
22018;BME280;11173;51.050;7.108;2022-09-09T18:37:16;98920.91;;;15.46;58.49
22018;BME280;11173;51.050;7.108;2022-09-09T18:42:17;98921.22;;;15.48;58.40
22018;BME280;11173;51.050;7.108;2022-09-09T18:47:17;98915.75;;;15.54;58.85
22018;BME280;11173;51.050;7.108;2022-09-09T18:52:18;98915.59;;;15.57;58.37
22018;BME280;11173;51.050;7.108;2022-09-09T18:57:18;98922.56;;;15.62;58.41
22018;BME280;11173;51.050;7.108;2022-09-09T19:02:19;98921.00;;;15.61;58.74
22018;BME280;11173;51.050;7.108;2022-09-09T19:07:20;98927.44;;;15.61;58.66
22018;BME280;11173;51.050;7.108;2022-09-09T19:12:21;98929.63;;;15.57;58.27
22018;BME280;11173;51.050;7.108;2022-09-09T19:17:22;98938.19;;;15.54;58.40
22018;BME280;11173;51.050;7.108;2022-09-09T19:22:22;98942.75;;;15.42;58.51
22018;BME280;11173;51.050;7.108;2022-09-09T19:27:23;98941.69;;;15.30;58.39
22018;BME280;11173;51.050;7.108;2022-09-09T19:32:24;98941.22;;;15.13;58.96
22018;BME280;11173;51.050;7.108;2022-09-09T19:37:24;98941.25;;;15.04;59.15
22018;BME280;11173;51.050;7.108;2022-09-09T19:42:25;98951.22;;;14.96;59.14
22018;BME280;11173;51.050;7.108;2022-09-09T19:47:25;98958.09;;;14.85;59.21
22018;BME280;11173;51.050;7.108;2022-09-09T19:52:26;98960.59;;;14.83;60.05
22018;BME280;11173;51.050;7.108;2022-09-09T19:57:27;98968.97;;;14.92;60.04
22018;BME280;11173;51.050;7.108;2022-09-09T20:02:29;98975.53;;;14.99;59.76
22018;BME280;11173;51.050;7.108;2022-09-09T20:07:30;98979.56;;;15.07;59.86
22018;BME280;11173;51.050;7.108;2022-09-09T20:12:30;98981.00;;;15.11;60.06
22018;BME280;11173;51.050;7.108;2022-09-09T20:17:30;98979.88;;;15.18;59.75
22018;BME280;11173;51.050;7.108;2022-09-09T20:22:31;98985.00;;;15.29;60.18
22018;BME280;11173;51.050;7.108;2022-09-09T20:27:32;98983.59;;;15.43;59.83
22018;BME280;11173;51.050;7.108;2022-09-09T20:32:33;98983.56;;;15.52;59.59
22018;BME280;11173;51.050;7.108;2022-09-09T20:37:33;98977.97;;;15.61;59.55
22018;BME280;11173;51.050;7.108;2022-09-09T20:42:33;98990.41;;;15.69;59.50
22018;BME280;11173;51.050;7.108;2022-09-09T20:47:34;98992.25;;;15.73;59.76
22018;BME280;11173;51.050;7.108;2022-09-09T20:52:34;98979.47;;;15.71;59.13
22018;BME280;11173;51.050;7.108;2022-09-09T20:57:35;98990.53;;;15.84;59.42
22018;BME280;11173;51.050;7.108;2022-09-09T21:02:36;99001.59;;;15.88;59.26
22018;BME280;11173;51.050;7.108;2022-09-09T21:07:36;98990.38;;;15.88;59.39
22018;BME280;11173;51.050;7.108;2022-09-09T21:12:37;98994.56;;;15.93;59.14
22018;BME280;11173;51.050;7.108;2022-09-09T21:17:38;98990.69;;;15.90;59.53
22018;BME280;11173;51.050;7.108;2022-09-09T21:22:39;98980.88;;;15.85;59.31
22018;BME280;11173;51.050;7.108;2022-09-09T21:27:39;98984.44;;;15.86;59.08
22018;BME280;11173;51.050;7.108;2022-09-09T21:32:40;98979.13;;;15.79;59.04
22018;BME280;11173;51.050;7.108;2022-09-09T21:37:40;98989.31;;;15.67;58.87
22018;BME280;11173;51.050;7.108;2022-09-09T21:42:41;98984.81;;;15.51;59.05
22018;BME280;11173;51.050;7.108;2022-09-09T21:47:44;98989.53;;;15.36;58.69
22018;BME280;11173;51.050;7.108;2022-09-09T21:52:48;98990.50;;;15.14;59.15
22018;BME280;11173;51.050;7.108;2022-09-09T21:57:49;99000.00;;;14.98;59.38
22018;BME280;11173;51.050;7.108;2022-09-09T22:02:50;98984.41;;;14.88;60.32
22018;BME280;11173;51.050;7.108;2022-09-09T22:07:51;98991.25;;;14.87;60.56
22018;BME280;11173;51.050;7.108;2022-09-09T22:12:52;98999.06;;;14.92;60.44
22018;BME280;11173;51.050;7.108;2022-09-09T22:17:53;98987.69;;;14.96;60.78
22018;BME280;11173;51.050;7.108;2022-09-09T22:22:54;98985.06;;;15.01;60.27
22018;BME280;11173;51.050;7.108;2022-09-09T22:27:55;98990.31;;;15.08;60.33
22018;BME280;11173;51.050;7.108;2022-09-09T22:32:56;98996.09;;;15.14;60.69
22018;BME280;11173;51.050;7.108;2022-09-09T22:37:56;98987.22;;;15.16;60.52
22018;BME280;11173;51.050;7.108;2022-09-09T22:42:57;98995.00;;;15.21;60.25
22018;BME280;11173;51.050;7.108;2022-09-09T22:47:59;98979.13;;;15.18;60.29
22018;BME280;11173;51.050;7.108;2022-09-09T22:53:00;98995.78;;;15.30;60.57
22018;BME280;11173;51.050;7.108;2022-09-09T22:58:00;98978.78;;;15.25;59.94
22018;BME280;11173;51.050;7.108;2022-09-09T23:03:01;98979.56;;;15.25;60.34
22018;BME280;11173;51.050;7.108;2022-09-09T23:08:02;98980.97;;;15.30;60.25
22018;BME280;11173;51.050;7.108;2022-09-09T23:13:02;98991.09;;;15.37;60.44
22018;BME280;11173;51.050;7.108;2022-09-09T23:18:02;98992.50;;;15.41;60.43
22018;BME280;11173;51.050;7.108;2022-09-09T23:23:03;98991.38;;;15.48;60.54
22018;BME280;11173;51.050;7.108;2022-09-09T23:28:03;99002.47;;;15.51;60.21
22018;BME280;11173;51.050;7.108;2022-09-09T23:33:04;98984.19;;;15.47;60.22
22018;BME280;11173;51.050;7.108;2022-09-09T23:38:04;99001.34;;;15.49;59.89
22018;BME280;11173;51.050;7.108;2022-09-09T23:43:04;98997.78;;;15.48;60.29
22018;BME280;11173;51.050;7.108;2022-09-09T23:48:05;98994.50;;;15.41;59.91
22018;BME280;11173;51.050;7.108;2022-09-09T23:53:05;98995.31;;;15.32;59.63
22018;BME280;11173;51.050;7.108;2022-09-09T23:58:07;98996.88;;;15.24;60.14
